Time;durP1;ratioP1;P1;durP2;ratioP2;P2;SDS_P1;SDS_P2;PMS_P1;PMS_P2;Temp;Humidity;BMP_temperature;BMP_pressure;BME280_temperature;BME280_humidity;BME280_pressure;Samples;Min_cycle;Max_cycle;Signal;HPM_P1;HPM_P2
2022/01/14 00:02:11;;;;;;;93.28;30.50;;;;;;;;;;6248461;22;20004;-80
2022/01/14 00:04:37;;;;;;;83.97;28.48;;;;;;;;;;6274076;22;20480;-80
2022/01/14 00:07:03;;;;;;;83.47;28.98;;;;;;;;;;6274806;22;20004;-81
2022/01/14 00:09:29;;;;;;;85.18;25.90;;;;;;;;;;6248814;22;20388;-80
2022/01/14 00:11:58;;;;;;;88.80;28.00;;;;;;;;;;6290314;22;20014;-80
2022/01/14 00:14:38;;;;;;;90.57;29.50;;;;;;;;;;6263256;22;20079;-80
2022/01/14 00:17:08;;;;;;;99.63;28.58;;;;;;;;;;6269822;22;20381;-79
2022/01/14 00:19:33;;;;;;;85.18;27.35;;;;;;;;;;6248313;22;19999;-80
2022/01/14 00:22:04;;;;;;;78.15;27.10;;;;;;;;;;6274731;22;19996;-81
2022/01/14 00:31:38;;;;;;;84.07;26.67;;;;;;;;;;6274946;22;20032;-80
2022/01/14 00:32:57;;;;;;;79.60;26.70;;;;;;;;;;6273470;22;20492;-79
2022/01/14 00:35:23;;;;;;;74.27;24.00;;;;;;;;;;6281932;22;19996;-81
2022/01/14 00:37:48;;;;;;;84.55;26.73;;;;;;;;;;6285405;22;20313;-79
2022/01/14 00:40:14;;;;;;;78.10;26.20;;;;;;;;;;6248579;22;20007;-80
2022/01/14 00:42:39;;;;;;;90.05;27.88;;;;;;;;;;6275133;22;20008;-80
2022/01/14 00:45:08;;;;;;;72.55;23.65;;;;;;;;;;6275857;22;20308;-80
2022/01/14 00:47:37;;;;;;;86.65;26.85;;;;;;;;;;6277012;22;19999;-79
2022/01/14 00:50:05;;;;;;;82.00;28.60;;;;;;;;;;6272804;22;20014;-81
2022/01/14 00:52:30;;;;;;;86.63;28.20;;;;;;;;;;6261800;22;20011;-80
2022/01/14 00:54:55;;;;;;;82.28;26.80;;;;;;;;;;6227034;22;20004;-81
2022/01/14 01:00:06;;;;;;;91.03;28.00;;;;;;;;;;6277822;22;20057;-80
2022/01/14 01:02:31;;;;;;;92.15;28.63;;;;;;;;;;6279975;22;20025;-80
2022/01/14 01:04:56;;;;;;;78.10;27.80;;;;;;;;;;6275461;22;19996;-80
2022/01/14 01:07:22;;;;;;;85.50;28.75;;;;;;;;;;6277086;22;20004;-81
2022/01/14 01:09:50;;;;;;;89.65;28.45;;;;;;;;;;6254907;22;20023;-80
2022/01/14 01:15:05;;;;;;;84.55;28.17;;;;;;;;;;6284881;22;20008;-79
2022/01/14 01:17:30;;;;;;;84.60;27.73;;;;;;;;;;6292017;22;19996;-77
2022/01/14 01:19:56;;;;;;;75.03;25.08;;;;;;;;;;6250101;22;20007;-81
2022/01/14 01:22:21;;;;;;;72.85;25.52;;;;;;;;;;6275520;22;20326;-81
2022/01/14 01:24:47;;;;;;;88.22;27.88;;;;;;;;;;6275538;22;20030;-80
2022/01/14 01:27:14;;;;;;;94.78;29.75;;;;;;;;;;6276518;22;20000;-81
2022/01/14 01:32:06;;;;;;;86.32;31.10;;;;;;;;;;6274843;22;20015;-81
2022/01/14 01:34:31;;;;;;;90.30;28.52;;;;;;;;;;6224658;22;20004;-80
2022/01/14 01:36:57;;;;;;;83.75;27.25;;;;;;;;;;6268420;22;20057;-80
2022/01/14 01:39:25;;;;;;;79.75;26.10;;;;;;;;;;6250336;22;20003;-80
2022/01/14 01:41:55;;;;;;;89.40;28.92;;;;;;;;;;6276960;22;20010;-80
2022/01/14 01:44:22;;;;;;;94.28;31.70;;;;;;;;;;6275430;22;20008;-80
2022/01/14 01:46:48;;;;;;;86.32;28.42;;;;;;;;;;6276817;22;19995;-79
2022/01/14 01:49:14;;;;;;;89.05;30.60;;;;;;;;;;6249711;22;20486;-79
2022/01/14 01:51:41;;;;;;;88.38;28.90;;;;;;;;;;6276607;22;20003;-79
2022/01/14 01:54:07;;;;;;;81.43;26.02;;;;;;;;;;6249624;22;20003;-79
2022/01/14 01:56:32;;;;;;;95.10;30.83;;;;;;;;;;6293070;22;19992;-81
2022/01/14 01:58:58;;;;;;;84.85;27.85;;;;;;;;;;6277820;22;20057;-80
2022/01/14 02:01:24;;;;;;;83.70;28.15;;;;;;;;;;6276412;22;20000;-80
2022/01/14 02:03:49;;;;;;;77.40;24.90;;;;;;;;;;6276332;22;20449;-79
2022/01/14 02:06:15;;;;;;;87.93;28.23;;;;;;;;;;6249670;22;20075;-79
2022/01/14 02:08:40;;;;;;;90.93;30.05;;;;;;;;;;6274677;22;20031;-80
2022/01/14 02:11:06;;;;;;;64.55;21.88;;;;;;;;;;6276735;22;20010;-79
2022/01/14 02:13:32;;;;;;;75.00;26.17;;;;;;;;;;6275113;22;20008;-80
2022/01/14 02:16:16;;;;;;;83.00;27.45;;;;;;;;;;6287416;22;19980;-81
2022/01/14 02:24:32;;;;;;;68.35;23.92;;;;;;;;;;6275191;22;20007;-79
2022/01/14 02:26:55;;;;;;;82.90;29.13;;;;;;;;;;6276376;22;20004;-80
2022/01/14 02:29:21;;;;;;;85.35;27.23;;;;;;;;;;6275584;22;20007;-80
2022/01/14 02:31:46;;;;;;;77.90;27.15;;;;;;;;;;6275864;22;20343;-80
2022/01/14 02:34:13;;;;;;;72.25;23.80;;;;;;;;;;6277504;22;20014;-80
2022/01/14 02:36:40;;;;;;;82.70;25.65;;;;;;;;;;6293198;22;20003;-79
2022/01/14 02:39:05;;;;;;;62.88;22.25;;;;;;;;;;6279168;22;20014;-79
2022/01/14 02:41:34;;;;;;;76.28;25.73;;;;;;;;;;6278451;22;20003;-79
2022/01/14 02:44:08;;;;;;;79.30;24.95;;;;;;;;;;6282908;22;20000;-79
2022/01/14 02:46:38;;;;;;;42.78;16.25;;;;;;;;;;6285608;22;20003;-81
2022/01/14 02:49:04;;;;;;;45.85;16.98;;;;;;;;;;6287630;22;20007;-81
2022/01/14 02:51:30;;;;;;;50.83;18.65;;;;;;;;;;6237883;22;20004;-80
2022/01/14 02:53:58;;;;;;;65.75;23.52;;;;;;;;;;6288999;22;20030;-80
2022/01/14 02:56:28;;;;;;;78.03;25.88;;;;;;;;;;6304644;22;20010;-81
2022/01/14 02:58:53;;;;;;;80.38;25.25;;;;;;;;;;6304749;22;20059;-82
2022/01/14 03:01:22;;;;;;;75.20;25.88;;;;;;;;;;6277887;22;20022;-80
2022/01/14 03:03:47;;;;;;;72.22;22.60;;;;;;;;;;6302304;22;20007;-81
2022/01/14 03:06:13;;;;;;;86.38;26.50;;;;;;;;;;6301489;22;19999;-80
2022/01/14 03:08:39;;;;;;;75.90;26.10;;;;;;;;;;6283159;22;20000;-81
2022/01/14 03:11:10;;;;;;;79.75;25.88;;;;;;;;;;6289362;22;20077;-79
2022/01/14 03:13:36;;;;;;;86.05;27.95;;;;;;;;;;6274996;22;20000;-79
2022/01/14 03:16:02;;;;;;;67.90;22.25;;;;;;;;;;6292284;22;20004;-79
2022/01/14 03:18:42;;;;;;;51.78;18.38;;;;;;;;;;6284920;22;20399;-80
2022/01/14 03:21:12;;;;;;;81.90;26.55;;;;;;;;;;6275814;22;20086;-79
2022/01/14 03:23:44;;;;;;;70.83;21.43;;;;;;;;;;6274316;22;20057;-79
2022/01/14 03:26:09;;;;;;;70.78;24.38;;;;;;;;;;6249459;22;19999;-80
2022/01/14 03:28:35;;;;;;;60.17;19.50;;;;;;;;;;6275463;22;20399;-79
2022/01/14 03:31:00;;;;;;;72.43;23.52;;;;;;;;;;6273729;22;20082;-79
2022/01/14 03:33:26;;;;;;;69.22;23.15;;;;;;;;;;6275251;22;20007;-80
2022/01/14 03:35:51;;;;;;;86.82;24.15;;;;;;;;;;6281519;22;19996;-80
2022/01/14 03:38:17;;;;;;;68.63;21.75;;;;;;;;;;6286463;22;20008;-81
2022/01/14 03:40:43;;;;;;;61.60;20.73;;;;;;;;;;6248540;22;20011;-79
2022/01/14 03:43:09;;;;;;;69.13;21.25;;;;;;;;;;6275512;22;20004;-80
2022/01/14 03:45:35;;;;;;;49.05;18.35;;;;;;;;;;6273565;22;20003;-80
2022/01/14 03:48:00;;;;;;;51.97;18.50;;;;;;;;;;6274326;22;19999;-81
2022/01/14 03:50:27;;;;;;;64.38;21.15;;;;;;;;;;6274240;22;20004;-80
2022/01/14 03:52:52;;;;;;;71.68;25.02;;;;;;;;;;6281946;22;20011;-82
2022/01/14 03:55:18;;;;;;;55.22;19.77;;;;;;;;;;6291494;22;20003;-79
2022/01/14 03:57:43;;;;;;;70.13;23.60;;;;;;;;;;6284392;22;19991;-79
2022/01/14 04:00:09;;;;;;;70.32;21.80;;;;;;;;;;6278119;22;20358;-80
2022/01/14 04:02:35;;;;;;;72.40;21.83;;;;;;;;;;6274084;22;20137;-81
2022/01/14 04:05:00;;;;;;;53.50;19.35;;;;;;;;;;6275142;22;20034;-80
2022/01/14 04:07:26;;;;;;;71.30;23.52;;;;;;;;;;6273659;22;19999;-81
2022/01/14 04:09:51;;;;;;;64.40;22.75;;;;;;;;;;6274050;22;20031;-80
2022/01/14 04:12:30;;;;;;;69.68;23.05;;;;;;;;;;6275756;22;20061;-81
2022/01/14 04:17:21;;;;;;;58.63;19.33;;;;;;;;;;6291450;22;20047;-80
2022/01/14 04:19:46;;;;;;;62.50;20.58;;;;;;;;;;6276092;22;20003;-80
2022/01/14 04:22:12;;;;;;;72.50;24.02;;;;;;;;;;6223033;22;20027;-79
2022/01/14 04:24:37;;;;;;;64.32;21.83;;;;;;;;;;6275341;22;20423;-79
2022/01/14 04:27:03;;;;;;;57.13;21.50;;;;;;;;;;6248141;22;20339;-80
2022/01/14 04:29:28;;;;;;;63.90;20.48;;;;;;;;;;6248051;22;20000;-80
2022/01/14 04:31:54;;;;;;;56.75;18.48;;;;;;;;;;6273622;22;20035;-80
2022/01/14 04:34:19;;;;;;;39.33;15.38;;;;;;;;;;6274917;22;20008;-80
2022/01/14 04:36:45;;;;;;;45.95;15.35;;;;;;;;;;6289672;22;20063;-82
2022/01/14 04:39:10;;;;;;;48.42;17.70;;;;;;;;;;6278918;22;20334;-79
2022/01/14 04:41:36;;;;;;;40.13;14.63;;;;;;;;;;6273983;22;20390;-80
2022/01/14 04:44:02;;;;;;;62.10;17.92;;;;;;;;;;6275033;22;20094;-81
2022/01/14 04:48:53;;;;;;;65.93;20.60;;;;;;;;;;6276453;22;20440;-79
2022/01/14 04:51:21;;;;;;;64.30;22.90;;;;;;;;;;6250955;22;20004;-80
2022/01/14 04:53:46;;;;;;;41.92;16.05;;;;;;;;;;6249564;22;19999;-79
2022/01/14 04:56:11;;;;;;;54.05;17.17;;;;;;;;;;6258499;22;20405;-80
2022/01/14 04:58:37;;;;;;;51.42;17.35;;;;;;;;;;6285063;22;20004;-80
2022/01/14 05:01:02;;;;;;;61.47;21.48;;;;;;;;;;6274134;22;20026;-80
2022/01/14 05:03:28;;;;;;;60.70;19.52;;;;;;;;;;6275468;22;20087;-80
2022/01/14 05:05:57;;;;;;;62.67;21.00;;;;;;;;;;6248581;22;20006;-80
2022/01/14 05:08:35;;;;;;;62.17;19.10;;;;;;;;;;6224187;22;20004;-79
2022/01/14 05:11:51;;;;;;;78.70;24.05;;;;;;;;;;6275063;22;20000;-81
2022/01/14 05:13:49;;;;;;;56.50;19.10;;;;;;;;;;6262649;22;20042;-79
2022/01/14 05:16:14;;;;;;;54.25;18.05;;;;;;;;;;6281180;22;20011;-79
2022/01/14 05:18:40;;;;;;;57.08;19.80;;;;;;;;;;6285771;22;20042;-80
2022/01/14 05:21:06;;;;;;;62.72;21.15;;;;;;;;;;6248581;22;20008;-80
2022/01/14 05:23:31;;;;;;;46.72;16.17;;;;;;;;;;6248456;22;20127;-81
2022/01/14 05:25:57;;;;;;;50.63;16.67;;;;;;;;;;6248159;22;20008;-82
2022/01/14 05:28:22;;;;;;;53.97;18.55;;;;;;;;;;6275477;22;19996;-79
2022/01/14 05:30:48;;;;;;;69.80;22.17;;;;;;;;;;6277150;22;20004;-80
2022/01/14 05:33:15;;;;;;;65.43;22.58;;;;;;;;;;6277575;22;20082;-79
2022/01/14 05:35:41;;;;;;;65.40;20.88;;;;;;;;;;6277209;22;20004;-79
2022/01/14 05:38:06;;;;;;;68.25;21.65;;;;;;;;;;6294511;22;20341;-79
2022/01/14 05:40:31;;;;;;;47.38;16.42;;;;;;;;;;6276751;22;20000;-79
2022/01/14 05:42:57;;;;;;;50.67;18.17;;;;;;;;;;6275043;22;20008;-80
2022/01/14 05:45:23;;;;;;;63.92;20.02;;;;;;;;;;6274877;22;20008;-79
2022/01/14 05:47:49;;;;;;;65.70;20.63;;;;;;;;;;6275122;22;20339;-79
2022/01/14 05:50:17;;;;;;;69.80;22.70;;;;;;;;;;6274595;22;20407;-80
2022/01/14 05:52:43;;;;;;;56.25;18.63;;;;;;;;;;6274489;22;20084;-79
2022/01/14 05:55:14;;;;;;;58.53;20.55;;;;;;;;;;6274834;22;20004;-79
2022/01/14 05:57:47;;;;;;;45.13;16.40;;;;;;;;;;6260453;22;20003;-81
2022/01/14 06:00:19;;;;;;;60.60;19.52;;;;;;;;;;6222473;22;20004;-80
2022/01/14 06:06:52;;;;;;;68.28;21.42;;;;;;;;;;6214549;22;20016;-80
2022/01/14 06:09:36;;;;;;;56.15;18.42;;;;;;;;;;6209457;23;20020;-80
2022/01/14 06:12:07;;;;;;;50.13;18.75;;;;;;;;;;6163248;23;20054;-80
2022/01/14 06:14:52;;;;;;;42.03;15.27;;;;;;;;;;6160517;23;20035;-80
2022/01/14 06:17:32;;;;;;;63.50;21.50;;;;;;;;;;6170252;23;20005;-80
2022/01/14 06:37:57;;;;;;;40.35;13.80;;;;;;;;;;6214959;22;20095;-82
2022/01/14 06:40:23;;;;;;;65.03;22.98;;;;;;;;;;6216777;23;20039;-83
2022/01/14 06:46:03;;;;;;;38.53;13.77;;;;;;;;;;6189665;23;20009;-81
2022/01/14 06:48:29;;;;;;;57.03;19.05;;;;;;;;;;6192266;23;20001;-80
2022/01/14 06:50:55;;;;;;;59.03;20.58;;;;;;;;;;6212793;22;19987;-80
2022/01/14 06:53:23;;;;;;;48.40;15.98;;;;;;;;;;6142633;23;20343;-76
2022/01/14 06:55:48;;;;;;;45.20;16.00;;;;;;;;;;6188997;23;20005;-76
2022/01/14 06:58:14;;;;;;;56.53;19.35;;;;;;;;;;6219929;23;20008;-75
2022/01/14 07:00:40;;;;;;;59.15;18.27;;;;;;;;;;6221766;23;20034;-76
2022/01/14 07:03:05;;;;;;;52.65;16.98;;;;;;;;;;6191379;23;20054;-77
2022/01/14 07:05:37;;;;;;;65.85;24.27;;;;;;;;;;6217552;23;20002;-77
2022/01/14 07:08:02;;;;;;;44.72;15.93;;;;;;;;;;6215593;23;20112;-77
2022/01/14 07:10:28;;;;;;;49.85;16.92;;;;;;;;;;6215909;23;20005;-77
2022/01/14 07:12:54;;;;;;;55.75;19.77;;;;;;;;;;6215836;23;20047;-77
2022/01/14 07:15:21;;;;;;;34.03;13.48;;;;;;;;;;6164780;23;20011;-77
2022/01/14 07:17:47;;;;;;;43.13;13.40;;;;;;;;;;6191844;23;20040;-75
2022/01/14 07:20:14;;;;;;;44.42;16.13;;;;;;;;;;6226926;23;20000;-76
2022/01/14 07:22:40;;;;;;;52.42;17.45;;;;;;;;;;6215520;23;20075;-76
2022/01/14 07:25:07;;;;;;;42.80;16.85;;;;;;;;;;6191880;23;20000;-80
2022/01/14 07:27:32;;;;;;;52.33;19.00;;;;;;;;;;6221973;23;20005;-79
2022/01/14 07:29:58;;;;;;;55.67;18.42;;;;;;;;;;6191414;23;20028;-75
2022/01/14 07:32:24;;;;;;;56.72;19.50;;;;;;;;;;6188705;23;20008;-75
2022/01/14 07:34:53;;;;;;;41.60;15.95;;;;;;;;;;6189546;23;20099;-75
2022/01/14 07:37:20;;;;;;;48.50;15.32;;;;;;;;;;6190254;23;20009;-75
2022/01/14 07:39:46;;;;;;;45.17;14.50;;;;;;;;;;6170527;23;20316;-75
2022/01/14 07:42:11;;;;;;;53.10;16.75;;;;;;;;;;6194154;23;20066;-80
2022/01/14 07:44:46;;;;;;;40.58;16.52;;;;;;;;;;6216413;23;20008;-76
2022/01/14 07:47:12;;;;;;;45.30;17.23;;;;;;;;;;6189869;23;20023;-77
2022/01/14 07:49:40;;;;;;;42.75;14.43;;;;;;;;;;6212625;23;20001;-79
2022/01/14 07:52:06;;;;;;;51.35;18.10;;;;;;;;;;6210778;23;20004;-77
2022/01/14 07:54:31;;;;;;;53.35;17.75;;;;;;;;;;6212859;23;20329;-77
2022/01/14 07:57:00;;;;;;;55.88;21.40;;;;;;;;;;6185768;23;20455;-75
2022/01/14 07:59:28;;;;;;;47.78;15.30;;;;;;;;;;6192020;23;20001;-75
2022/01/14 08:01:58;;;;;;;40.53;14.13;;;;;;;;;;6190747;23;20009;-75
2022/01/14 08:04:24;;;;;;;45.75;16.33;;;;;;;;;;6190162;23;20004;-74
2022/01/14 08:06:52;;;;;;;39.80;15.00;;;;;;;;;;6163983;23;20072;-74
2022/01/14 08:09:18;;;;;;;46.75;15.27;;;;;;;;;;6188729;23;20062;-74
2022/01/14 08:11:44;;;;;;;46.85;16.25;;;;;;;;;;6213796;23;20004;-77
2022/01/14 08:14:10;;;;;;;45.88;16.50;;;;;;;;;;6214120;23;20000;-74
2022/01/14 08:16:35;;;;;;;41.40;14.80;;;;;;;;;;6213350;23;19996;-74
2022/01/14 08:19:01;;;;;;;53.20;16.92;;;;;;;;;;6215998;23;20424;-73
2022/01/14 08:21:26;;;;;;;44.28;16.27;;;;;;;;;;6216413;23;20035;-73
2022/01/14 08:23:52;;;;;;;48.70;17.27;;;;;;;;;;6188349;23;20007;-73
2022/01/14 08:26:17;;;;;;;50.60;18.58;;;;;;;;;;6162725;23;20023;-74
2022/01/14 08:28:46;;;;;;;44.13;14.30;;;;;;;;;;6186792;23;20058;-74
2022/01/14 08:31:11;;;;;;;48.05;17.00;;;;;;;;;;6213007;23;20008;-73
2022/01/14 08:33:37;;;;;;;50.88;18.77;;;;;;;;;;6161852;23;20411;-76
2022/01/14 08:36:05;;;;;;;49.63;17.27;;;;;;;;;;6216451;23;20000;-75
2022/01/14 08:38:31;;;;;;;42.20;14.73;;;;;;;;;;6162865;23;20008;-76
2022/01/14 08:40:56;;;;;;;56.20;18.23;;;;;;;;;;6137033;23;20005;-77
2022/01/14 08:43:22;;;;;;;47.15;15.95;;;;;;;;;;6184789;23;20013;-78
2022/01/14 08:45:47;;;;;;;43.97;15.10;;;;;;;;;;6210746;23;20561;-77
2022/01/14 08:48:16;;;;;;;44.70;15.20;;;;;;;;;;6209445;23;20040;-79
2022/01/14 08:50:42;;;;;;;52.28;15.85;;;;;;;;;;6183409;23;20007;-78
2022/01/14 08:53:10;;;;;;;40.58;14.07;;;;;;;;;;6206087;23;20020;-75
2022/01/14 08:55:36;;;;;;;44.78;15.75;;;;;;;;;;6208040;23;20008;-76
2022/01/14 08:58:03;;;;;;;43.95;17.25;;;;;;;;;;6189219;23;20039;-76
2022/01/14 09:00:28;;;;;;;52.80;19.05;;;;;;;;;;6213597;23;20087;-75
2022/01/14 09:02:54;;;;;;;56.53;18.15;;;;;;;;;;6210033;23;20005;-75
2022/01/14 09:05:20;;;;;;;45.97;17.50;;;;;;;;;;6183050;23;20012;-75
2022/01/14 09:07:46;;;;;;;43.95;17.02;;;;;;;;;;6212778;23;20386;-77
2022/01/14 09:10:12;;;;;;;43.10;15.55;;;;;;;;;;6210066;23;20415;-75
2022/01/14 09:12:37;;;;;;;42.92;15.73;;;;;;;;;;6185691;23;20009;-75
2022/01/14 09:15:03;;;;;;;40.80;14.65;;;;;;;;;;6212195;23;20020;-75
2022/01/14 09:17:29;;;;;;;45.28;16.00;;;;;;;;;;6214434;23;20346;-76
2022/01/14 09:19:55;;;;;;;52.70;18.08;;;;;;;;;;6192903;23;20087;-75
2022/01/14 09:22:22;;;;;;;46.42;16.25;;;;;;;;;;6218241;23;20000;-75
2022/01/14 09:24:48;;;;;;;43.25;15.40;;;;;;;;;;6218493;23;20051;-75
2022/01/14 09:27:14;;;;;;;46.92;15.98;;;;;;;;;;6218502;23;20001;-76
2022/01/14 09:29:40;;;;;;;51.90;16.23;;;;;;;;;;6216820;23;20466;-73
2022/01/14 09:32:06;;;;;;;46.80;16.33;;;;;;;;;;6215923;23;20339;-73
2022/01/14 09:34:36;;;;;;;39.45;13.68;;;;;;;;;;6216444;23;20000;-74
2022/01/14 09:37:03;;;;;;;52.42;18.13;;;;;;;;;;6216376;23;19996;-73
2022/01/14 09:39:31;;;;;;;49.92;16.83;;;;;;;;;;6215980;23;20024;-74
2022/01/14 09:41:57;;;;;;;49.65;17.88;;;;;;;;;;6214725;23;20059;-74
2022/01/14 09:44:22;;;;;;;48.78;18.50;;;;;;;;;;6189387;23;20391;-76
2022/01/14 09:46:51;;;;;;;58.88;19.83;;;;;;;;;;6215749;23;20063;-77
2022/01/14 09:49:17;;;;;;;50.88;17.98;;;;;;;;;;6215398;23;20001;-78
2022/01/14 09:51:43;;;;;;;40.33;13.38;;;;;;;;;;6212663;23;20011;-75
2022/01/14 09:54:11;;;;;;;38.72;14.63;;;;;;;;;;6211744;23;20035;-76
2022/01/14 09:56:39;;;;;;;47.22;16.45;;;;;;;;;;6188765;23;20005;-77
2022/01/14 09:59:05;;;;;;;70.47;24.02;;;;;;;;;;6217336;23;20395;-78
2022/01/14 10:01:45;;;;;;;48.42;17.33;;;;;;;;;;6222675;23;20004;-78
2022/01/14 10:04:16;;;;;;;40.15;14.05;;;;;;;;;;6214778;23;20001;-77
2022/01/14 10:06:51;;;;;;;60.13;21.15;;;;;;;;;;6212745;23;20004;-77
2022/01/14 10:09:44;;;;;;;32.30;12.93;;;;;;;;;;6212364;23;20006;-78
2022/01/14 10:12:22;;;;;;;29.25;11.07;;;;;;;;;;6210848;23;20051;-77
2022/01/14 10:14:57;;;;;;;47.35;16.40;;;;;;;;;;6209768;23;20005;-78
2022/01/14 10:17:27;;;;;;;37.53;12.18;;;;;;;;;;6212327;23;20025;-77
2022/01/14 10:19:53;;;;;;;36.25;12.70;;;;;;;;;;6195298;23;20276;-77
2022/01/14 10:22:29;;;;;;;41.58;14.02;;;;;;;;;;6217644;23;20039;-76
2022/01/14 10:25:04;;;;;;;44.38;14.95;;;;;;;;;;6215169;23;20080;-78
2022/01/14 10:27:33;;;;;;;41.30;15.05;;;;;;;;;;6217566;23;20442;-78
2022/01/14 10:30:19;;;;;;;36.67;14.27;;;;;;;;;;6217616;23;20035;-80
2022/01/14 10:32:53;;;;;;;43.97;15.63;;;;;;;;;;6214140;23;20020;-80
2022/01/14 10:35:23;;;;;;;29.23;10.48;;;;;;;;;;6216194;23;20568;-77
2022/01/14 10:37:48;;;;;;;28.10;11.35;;;;;;;;;;6216113;23;20023;-77
2022/01/14 10:40:19;;;;;;;30.73;12.18;;;;;;;;;;6220407;23;20022;-77
2022/01/14 10:42:49;;;;;;;29.65;11.85;;;;;;;;;;6192689;23;20008;-74
2022/01/14 10:45:19;;;;;;;28.02;11.18;;;;;;;;;;6214160;23;20084;-78
2022/01/14 10:48:02;;;;;;;30.85;12.45;;;;;;;;;;6217634;23;20004;-76
2022/01/14 10:50:43;;;;;;;27.13;11.30;;;;;;;;;;6216474;23;20107;-77
2022/01/14 10:53:11;;;;;;;28.42;11.25;;;;;;;;;;6214470;23;20040;-76
2022/01/14 10:55:42;;;;;;;37.70;12.35;;;;;;;;;;6214884;23;20087;-75
2022/01/14 10:58:20;;;;;;;28.52;10.85;;;;;;;;;;6215937;23;20439;-77
2022/01/14 11:00:51;;;;;;;33.85;12.73;;;;;;;;;;6204624;23;20020;-78
2022/01/14 11:03:52;;;;;;;33.10;12.27;;;;;;;;;;6215851;23;20004;-79
2022/01/14 11:06:38;;;;;;;32.28;12.60;;;;;;;;;;6214795;23;20063;-75
2022/01/14 11:09:09;;;;;;;31.83;13.23;;;;;;;;;;6213831;23;20008;-78
2022/01/14 11:11:38;;;;;;;;;;;;;;;;;;6214375;23;20308;-77
2022/01/14 11:14:04;;;;;;;30.73;12.07;;;;;;;;;;6212036;23;19908;-76
2022/01/14 11:16:30;;;;;;;30.75;11.15;;;;;;;;;;6212454;23;20000;-75
2022/01/14 11:18:58;;;;;;;24.00;10.00;;;;;;;;;;6192730;23;19996;-77
2022/01/14 11:24:11;;;;;;;31.30;12.40;;;;;;;;;;6216389;23;20054;-76
2022/01/14 11:26:37;;;;;;;34.10;12.02;;;;;;;;;;6165176;23;20414;-76
2022/01/14 11:29:17;;;;;;;28.88;12.60;;;;;;;;;;6190586;23;20367;-76
2022/01/14 11:31:42;;;;;;;34.05;12.43;;;;;;;;;;6214648;23;20047;-76
2022/01/14 11:34:29;;;;;;;33.45;11.57;;;;;;;;;;6215247;23;20008;-76
2022/01/14 11:36:56;;;;;;;28.98;10.57;;;;;;;;;;6193293;23;20083;-77
2022/01/14 11:39:26;;;;;;;23.27;9.80;;;;;;;;;;6213767;23;20067;-76
2022/01/14 11:41:56;;;;;;;22.35;8.70;;;;;;;;;;6213756;23;20043;-75
2022/01/14 11:44:41;;;;;;;28.95;10.07;;;;;;;;;;6213190;23;20354;-76
2022/01/14 11:47:07;;;;;;;17.92;8.05;;;;;;;;;;6214840;23;20001;-75
2022/01/14 11:49:38;;;;;;;17.15;7.35;;;;;;;;;;6213510;23;20005;-73
2022/01/14 11:52:07;;;;;;;23.55;8.82;;;;;;;;;;6210945;23;20067;-75
2022/01/14 11:54:38;;;;;;;20.80;8.25;;;;;;;;;;6213871;23;20001;-77
2022/01/14 11:57:04;;;;;;;24.55;9.18;;;;;;;;;;6216082;23;20042;-75
2022/01/14 11:59:30;;;;;;;18.05;7.50;;;;;;;;;;6194281;23;20008;-76
2022/01/14 12:01:56;;;;;;;18.33;7.32;;;;;;;;;;6217256;23;20004;-76
2022/01/14 12:04:22;;;;;;;18.38;7.07;;;;;;;;;;6163460;23;20079;-76
2022/01/14 12:06:50;;;;;;;24.13;8.70;;;;;;;;;;6187634;23;20013;-73
2022/01/14 12:09:20;;;;;;;24.67;8.23;;;;;;;;;;6214761;23;20012;-76
2022/01/14 12:12:24;;;;;;;24.60;9.15;;;;;;;;;;6185615;23;20083;-75
2022/01/14 12:15:01;;;;;;;29.88;10.63;;;;;;;;;;6212453;23;20523;-74
2022/01/14 12:17:40;;;;;;;22.83;8.63;;;;;;;;;;6186573;23;20004;-76
2022/01/14 12:20:18;;;;;;;19.67;8.73;;;;;;;;;;6193148;23;20060;-74
2022/01/14 12:23:19;;;;;;;18.58;7.55;;;;;;;;;;6215985;23;20004;-76
2022/01/14 12:25:45;;;;;;;46.35;18.75;;;;;;;;;;6061832;23;20042;-78
2022/01/14 12:28:20;;;;;;;21.90;8.57;;;;;;;;;;6157369;23;20028;-78
2022/01/14 12:31:02;;;;;;;26.15;10.18;;;;;;;;;;6139926;23;20001;-78
2022/01/14 12:33:42;;;;;;;27.10;9.65;;;;;;;;;;6187827;23;20052;-78
2022/01/14 12:36:12;;;;;;;31.70;10.85;;;;;;;;;;6214546;23;20011;-78
2022/01/14 12:38:39;;;;;;;34.23;11.83;;;;;;;;;;6166869;23;20020;-79
2022/01/14 12:41:05;;;;;;;19.80;7.55;;;;;;;;;;6198837;23;20246;-78
2022/01/14 12:43:30;;;;;;;18.55;6.65;;;;;;;;;;6190870;23;20418;-77
2022/01/14 12:46:12;;;;;;;31.55;8.77;;;;;;;;;;6218331;23;20003;-75
2022/01/14 12:51:20;;;;;;;16.40;6.55;;;;;;;;;;6166055;23;20009;-73
2022/01/14 12:53:51;;;;;;;17.20;6.70;;;;;;;;;;6190298;23;20000;-74
2022/01/14 12:56:18;;;;;;;24.55;8.50;;;;;;;;;;6216477;23;20012;-75
2022/01/14 12:58:54;;;;;;;21.40;6.07;;;;;;;;;;6190993;23;20023;-76
2022/01/14 13:01:50;;;;;;;18.63;6.30;;;;;;;;;;6196675;23;20004;-74
2022/01/14 13:04:17;;;;;;;22.55;7.93;;;;;;;;;;6213855;23;20032;-75
2022/01/14 13:07:03;;;;;;;18.60;7.22;;;;;;;;;;6191133;23;20015;-76
2022/01/14 13:09:34;;;;;;;20.70;7.93;;;;;;;;;;6216958;23;20005;-75
2022/01/14 13:12:05;;;;;;;39.25;15.63;;;;;;;;;;6191131;23;20376;-77
2022/01/14 13:15:16;;;;;;;51.45;19.35;;;;;;;;;;6216105;23;20104;-78
2022/01/14 13:17:35;;;;;;;22.75;7.65;;;;;;;;;;6192776;23;20469;-77
2022/01/14 13:20:11;;;;;;;43.13;14.43;;;;;;;;;;6139971;23;20001;-75
2022/01/14 13:22:37;;;;;;;27.65;10.45;;;;;;;;;;6226112;23;20005;-78
2022/01/14 13:25:05;;;;;;;28.05;11.52;;;;;;;;;;6165554;23;20008;-76
2022/01/14 13:27:33;;;;;;;25.13;10.35;;;;;;;;;;6189032;23;20011;-74
2022/01/14 13:30:00;;;;;;;26.85;9.65;;;;;;;;;;6166238;23;20382;-75
2022/01/14 13:32:30;;;;;;;22.17;8.43;;;;;;;;;;6190152;23;20080;-77
2022/01/14 13:35:15;;;;;;;18.85;7.35;;;;;;;;;;6164644;23;20011;-76
2022/01/14 13:37:42;;;;;;;25.92;8.52;;;;;;;;;;6168095;23;20107;-76
2022/01/14 13:40:09;;;;;;;22.90;8.02;;;;;;;;;;6139015;23;20450;-77
2022/01/14 13:42:35;;;;;;;41.70;16.13;;;;;;;;;;6171116;23;20005;-75
2022/01/14 13:45:19;;;;;;;51.10;17.05;;;;;;;;;;6192015;23;19997;-76
2022/01/14 13:48:09;;;;;;;26.77;10.60;;;;;;;;;;6214811;23;20084;-77
2022/01/14 13:50:40;;;;;;;30.70;9.98;;;;;;;;;;6202716;23;20004;-76
2022/01/14 13:53:05;;;;;;;15.32;6.43;;;;;;;;;;6187636;23;20020;-74
2022/01/14 13:55:34;;;;;;;18.80;7.30;;;;;;;;;;6217269;23;20053;-75
2022/01/14 13:58:10;;;;;;;22.55;6.50;;;;;;;;;;6214261;23;20027;-75
2022/01/14 14:00:37;;;;;;;15.98;6.35;;;;;;;;;;6164630;23;20002;-76
2022/01/14 14:03:12;;;;;;;23.25;8.35;;;;;;;;;;6192037;23;20035;-77
2022/01/14 14:05:44;;;;;;;17.52;7.15;;;;;;;;;;6195186;23;20004;-76
2022/01/14 14:08:34;;;;;;;22.30;7.38;;;;;;;;;;6189490;23;20387;-74
2022/01/14 14:17:04;;;;;;;21.13;6.60;;;;;;;;;;6215512;23;20067;-75
2022/01/14 14:19:48;;;;;;;25.08;8.35;;;;;;;;;;6215227;23;20009;-74
2022/01/14 14:22:16;;;;;;;22.17;7.68;;;;;;;;;;6213451;23;20008;-76
2022/01/14 14:25:14;;;;;;;42.92;19.10;;;;;;;;;;6219986;23;20356;-73
2022/01/14 14:27:41;;;;;;;31.92;10.15;;;;;;;;;;6217215;23;20050;-76
2022/01/14 14:30:18;;;;;;;27.60;8.48;;;;;;;;;;6188811;23;20012;-75
2022/01/14 14:32:45;;;;;;;22.27;8.45;;;;;;;;;;6213587;23;20009;-75
2022/01/14 14:35:13;;;;;;;28.90;9.75;;;;;;;;;;6214047;23;20029;-76
2022/01/14 14:37:41;;;;;;;20.83;8.02;;;;;;;;;;6188207;23;20005;-75
2022/01/14 14:40:11;;;;;;;24.65;10.05;;;;;;;;;;6188829;23;20009;-75
2022/01/14 14:42:37;;;;;;;31.35;10.73;;;;;;;;;;6213390;23;20415;-76
2022/01/14 14:45:03;;;;;;;28.80;11.05;;;;;;;;;;6213855;23;20507;-76
2022/01/14 14:47:29;;;;;;;32.67;13.50;;;;;;;;;;6219349;23;20447;-75
2022/01/14 14:49:54;;;;;;;33.33;12.18;;;;;;;;;;6213468;23;20000;-76
2022/01/14 14:52:21;;;;;;;38.53;13.38;;;;;;;;;;6212946;23;20012;-76
2022/01/14 14:54:46;;;;;;;31.30;12.68;;;;;;;;;;6213334;23;20430;-76
2022/01/14 14:57:12;;;;;;;50.05;17.17;;;;;;;;;;6215321;23;20079;-76
2022/01/14 14:59:38;;;;;;;37.92;14.60;;;;;;;;;;6213586;23;20059;-75
2022/01/14 15:02:04;;;;;;;38.08;12.45;;;;;;;;;;6214198;23;20012;-74
2022/01/14 15:04:30;;;;;;;39.63;15.10;;;;;;;;;;6214614;23;20062;-74
2022/01/14 15:06:55;;;;;;;48.10;17.67;;;;;;;;;;6217866;23;20001;-75
2022/01/14 15:09:21;;;;;;;38.88;13.95;;;;;;;;;;6231847;23;20035;-75
2022/01/14 15:11:46;;;;;;;32.78;11.27;;;;;;;;;;6226804;23;20412;-75
2022/01/14 15:14:12;;;;;;;29.40;12.77;;;;;;;;;;6218304;23;20023;-75
2022/01/14 15:17:08;;;;;;;33.40;11.25;;;;;;;;;;6213157;23;20004;-75
2022/01/14 15:19:32;;;;;;;26.15;10.43;;;;;;;;;;6214246;23;20141;-76
2022/01/14 15:21:57;;;;;;;33.92;12.07;;;;;;;;;;6214580;23;20004;-75
2022/01/14 15:24:23;;;;;;;29.17;10.77;;;;;;;;;;6214325;23;20000;-76
2022/01/14 15:26:48;;;;;;;23.50;9.63;;;;;;;;;;6215164;23;20052;-75
2022/01/14 15:29:14;;;;;;;24.77;9.40;;;;;;;;;;6224994;23;20001;-76
2022/01/14 15:31:39;;;;;;;24.02;8.80;;;;;;;;;;6219012;23;20005;-74